createdAt,value
2018-07-08T00:00:31.563Z,0.93
2018-07-08T00:02:59.856Z,0.70
2018-07-08T00:05:28.134Z,0.90
2018-07-08T00:07:56.525Z,0.90
2018-07-08T00:10:24.800Z,0.97
2018-07-08T00:12:52.787Z,1.13
2018-07-08T00:15:21.040Z,1.10
2018-07-08T00:17:49.112Z,0.73
2018-07-08T00:20:17.103Z,0.90
2018-07-08T00:22:45.379Z,0.80
2018-07-08T00:25:13.676Z,0.87
2018-07-08T00:27:41.966Z,1.20
2018-07-08T00:30:10.316Z,0.83
2018-07-08T00:32:38.585Z,1.10
2018-07-08T00:35:06.894Z,0.83
2018-07-08T00:37:35.128Z,1.00
2018-07-08T00:40:03.437Z,0.90
2018-07-08T00:42:31.809Z,1.17
2018-07-08T00:45:00.094Z,1.00
2018-07-08T00:47:28.353Z,0.87
2018-07-08T00:49:56.668Z,0.83
2018-07-08T00:52:24.935Z,1.07
2018-07-08T00:54:53.220Z,1.17
2018-07-08T00:57:21.529Z,1.00
2018-07-08T00:59:49.681Z,0.93
2018-07-08T01:02:17.977Z,0.87
2018-07-08T01:04:46.388Z,0.90
2018-07-08T01:07:14.677Z,1.27
2018-07-08T01:09:42.931Z,1.10
2018-07-08T01:12:11.193Z,1.03
2018-07-08T01:14:39.233Z,0.97
2018-07-08T01:17:07.551Z,1.07
2018-07-08T01:19:35.836Z,0.80
2018-07-08T01:22:04.159Z,1.10
2018-07-08T01:24:32.467Z,1.10
2018-07-08T01:27:00.491Z,1.37
2018-07-08T01:29:30.126Z,1.00
2018-07-08T01:31:58.519Z,1.33
2018-07-08T01:34:26.783Z,1.20
2018-07-08T01:36:55.181Z,1.13
2018-07-08T01:39:23.198Z,1.03
2018-07-08T01:41:51.499Z,1.30
2018-07-08T01:44:19.802Z,1.00
2018-07-08T01:46:48.033Z,1.10
2018-07-08T01:49:16.307Z,1.07
2018-07-08T01:51:44.565Z,1.17
2018-07-08T01:54:12.849Z,1.10
2018-07-08T01:56:41.140Z,1.20
2018-07-08T01:59:09.471Z,1.20
2018-07-08T02:01:37.456Z,1.07
2018-07-08T02:04:06.013Z,0.97
2018-07-08T02:06:34.327Z,1.33
2018-07-08T02:09:02.616Z,1.23
2018-07-08T02:11:30.979Z,1.60
2018-07-08T02:13:59.248Z,1.20
2018-07-08T02:16:27.520Z,1.23
2018-07-08T02:18:55.824Z,1.20
2018-07-08T02:21:24.099Z,1.10
2018-07-08T02:23:52.436Z,1.00
2018-07-08T02:26:20.788Z,1.40
2018-07-08T02:28:49.097Z,1.00
2018-07-08T02:31:17.185Z,1.40
2018-07-08T02:33:45.186Z,1.27
2018-07-08T02:36:13.525Z,1.00
2018-07-08T02:38:41.829Z,1.17
2018-07-08T02:41:10.110Z,1.13
2018-07-08T02:43:38.411Z,1.20
2018-07-08T02:46:06.751Z,1.13
2018-07-08T02:48:35.093Z,1.20
2018-07-08T02:51:03.406Z,1.17
2018-07-08T02:53:31.688Z,1.07
2018-07-08T02:55:59.960Z,1.00
2018-07-08T02:58:28.246Z,1.37
2018-07-08T03:00:56.493Z,1.30
2018-07-08T03:03:24.535Z,0.90
2018-07-08T03:05:52.812Z,1.10
2018-07-08T03:08:21.134Z,1.20
2018-07-08T03:10:49.392Z,1.20
2018-07-08T03:13:17.395Z,1.00
2018-07-08T03:18:20.299Z,1.20
2018-07-08T03:20:48.691Z,1.00
2018-07-08T03:23:16.995Z,1.00
2018-07-08T03:25:45.304Z,0.90
2018-07-08T03:28:13.560Z,1.20
2018-07-08T03:30:41.845Z,1.37
2018-07-08T03:33:09.862Z,1.30
2018-07-08T03:35:38.138Z,1.37
2018-07-08T03:38:06.443Z,1.53
2018-07-08T03:40:34.759Z,1.30
2018-07-08T03:43:03.124Z,1.00
2018-07-08T03:45:31.385Z,1.30
2018-07-08T03:47:59.677Z,1.10
2018-07-08T03:50:27.958Z,0.97
2018-07-08T03:52:56.275Z,1.13
2018-07-08T03:55:24.581Z,0.90
2018-07-08T03:57:52.852Z,1.03
2018-07-08T04:00:21.181Z,1.20
2018-07-08T04:02:49.525Z,1.23
2018-07-08T04:05:17.784Z,1.30
2018-07-08T04:07:46.057Z,1.17
2018-07-08T04:10:14.337Z,1.33
2018-07-08T04:12:42.679Z,1.10
2018-07-08T04:15:11.032Z,1.20
2018-07-08T04:17:39.298Z,1.10
2018-07-08T04:20:08.525Z,1.27
2018-07-08T04:22:36.825Z,1.23
2018-07-08T04:25:05.154Z,1.30
2018-07-08T04:27:33.484Z,1.17
2018-07-08T04:30:01.784Z,1.03
2018-07-08T04:32:30.056Z,0.90
2018-07-08T04:34:58.436Z,1.40
2018-07-08T04:37:26.757Z,1.10
2018-07-08T04:39:55.069Z,1.30
2018-07-08T04:42:23.340Z,1.10
2018-07-08T04:44:51.610Z,1.37
2018-07-08T04:47:19.974Z,1.30
2018-07-08T04:49:48.255Z,1.17
2018-07-08T04:52:16.499Z,1.30
2018-07-08T04:54:44.765Z,1.10
2018-07-08T04:57:13.180Z,1.13
2018-07-08T04:59:41.468Z,1.20
2018-07-08T05:02:09.736Z,1.20
2018-07-08T05:04:38.091Z,1.00
2018-07-08T05:07:06.352Z,0.93
2018-07-08T05:09:34.619Z,1.40
2018-07-08T05:12:02.894Z,1.07
2018-07-08T05:14:31.177Z,1.10
2018-07-08T05:16:59.479Z,1.37
2018-07-08T05:19:27.812Z,1.00
2018-07-08T05:21:56.053Z,1.20
2018-07-08T05:24:24.318Z,1.30
2018-07-08T05:26:52.747Z,1.53
2018-07-08T05:29:21.442Z,1.10
2018-07-08T05:31:49.459Z,1.27
2018-07-08T05:34:17.708Z,1.30
2018-07-08T05:36:46.025Z,1.23
2018-07-08T05:39:14.544Z,1.37
2018-07-08T05:41:42.795Z,2.23
2018-07-08T05:44:11.117Z,1.40
2018-07-08T05:46:39.406Z,1.43
2018-07-08T05:49:07.722Z,1.30
2018-07-08T05:51:36.031Z,1.20
2018-07-08T05:54:04.365Z,1.03
2018-07-08T05:56:32.596Z,1.67
2018-07-08T05:59:00.864Z,1.30
2018-07-08T06:01:29.178Z,1.10
2018-07-08T06:03:57.452Z,1.03
2018-07-08T06:06:25.484Z,1.30
2018-07-08T06:08:53.812Z,1.70
2018-07-08T06:11:22.090Z,1.13
2018-07-08T06:13:50.387Z,1.30
2018-07-08T06:16:18.671Z,1.07
2018-07-08T06:18:46.897Z,1.40
2018-07-08T06:21:15.169Z,0.93
2018-07-08T06:23:43.467Z,1.20
2018-07-08T06:26:11.523Z,1.20
2018-07-08T06:28:39.872Z,1.20
2018-07-08T06:31:08.224Z,1.30
2018-07-08T06:33:36.575Z,1.10
2018-07-08T06:36:04.640Z,0.83
2018-07-08T06:38:33.187Z,1.20
2018-07-08T06:41:01.463Z,1.30
2018-07-08T06:43:29.729Z,1.10
2018-07-08T06:45:58.057Z,1.10
2018-07-08T06:48:26.380Z,1.20
2018-07-08T06:50:54.691Z,1.00
2018-07-08T06:53:23.359Z,1.10
2018-07-08T06:55:51.698Z,1.10
2018-07-08T06:58:20.049Z,1.07
2018-07-08T07:00:48.091Z,0.77
2018-07-08T07:03:16.375Z,0.80
2018-07-08T07:05:44.643Z,0.97
2018-07-08T07:08:12.922Z,1.10
2018-07-08T07:10:41.196Z,1.07
2018-07-08T07:13:09.532Z,1.00
2018-07-08T07:15:37.851Z,0.97
2018-07-08T07:18:06.142Z,1.00
2018-07-08T07:20:34.422Z,0.90
2018-07-08T07:23:02.809Z,1.07
2018-07-08T07:25:31.055Z,0.90
2018-07-08T07:27:59.391Z,0.70
2018-07-08T07:30:27.769Z,1.10
2018-07-08T07:32:56.037Z,0.93
2018-07-08T07:35:24.285Z,1.23
2018-07-08T07:37:52.667Z,0.77
2018-07-08T07:40:20.980Z,0.80
2018-07-08T07:42:49.264Z,0.70
2018-07-08T07:45:17.623Z,0.70
2018-07-08T07:47:45.911Z,0.70
2018-07-08T07:50:14.259Z,0.70
2018-07-08T07:52:42.236Z,0.60
2018-07-08T07:55:10.543Z,0.80
2018-07-08T07:57:38.816Z,0.70
2018-07-08T08:00:08.216Z,0.80
2018-07-08T08:02:36.533Z,1.10
2018-07-08T08:05:04.881Z,0.70
2018-07-08T08:07:33.169Z,0.80
2018-07-08T08:10:01.393Z,0.70
2018-07-08T08:12:29.409Z,0.80
2018-07-08T08:14:57.748Z,0.70
2018-07-08T08:17:25.751Z,0.67
2018-07-08T08:19:54.046Z,0.90
2018-07-08T08:22:22.664Z,0.80
2018-07-08T08:24:50.924Z,0.70
2018-07-08T08:27:20.995Z,1.10
2018-07-08T08:29:49.481Z,1.13
2018-07-08T08:32:17.787Z,0.80
2018-07-08T08:34:50.667Z,0.70
2018-07-08T08:37:20.250Z,0.80
2018-07-08T08:39:49.250Z,0.73
2018-07-08T08:42:17.548Z,0.70
2018-07-08T08:44:45.775Z,0.83
2018-07-08T08:47:14.679Z,0.80
2018-07-08T08:49:42.956Z,0.63
2018-07-08T08:52:11.326Z,0.63
2018-07-08T08:54:40.536Z,0.73
2018-07-08T08:57:09.221Z,0.90
2018-07-08T08:59:37.632Z,0.60
2018-07-08T09:02:06.687Z,0.80
2018-07-08T09:04:35.093Z,0.77
2018-07-08T09:07:03.471Z,0.60
2018-07-08T09:09:31.874Z,0.60
2018-07-08T09:12:00.188Z,1.00
2018-07-08T09:14:28.215Z,0.77
2018-07-08T09:16:56.600Z,0.70
2018-07-08T09:19:24.919Z,0.60
2018-07-08T09:21:53.991Z,0.70
2018-07-08T09:24:22.286Z,0.60
2018-07-08T09:26:50.352Z,0.57
2018-07-08T09:29:18.729Z,0.90
2018-07-08T09:31:46.971Z,0.93
2018-07-08T09:34:15.078Z,0.70
2018-07-08T09:36:43.413Z,0.60
2018-07-08T09:39:13.884Z,0.90
2018-07-08T09:41:42.816Z,0.77
2018-07-08T09:44:12.224Z,0.80
2018-07-08T09:46:41.519Z,0.80
2018-07-08T09:49:09.788Z,0.70
2018-07-08T09:51:38.027Z,0.60
2018-07-08T09:54:06.341Z,0.80
2018-07-08T09:56:34.811Z,0.80
2018-07-08T09:59:03.220Z,0.57
2018-07-08T10:01:50.287Z,0.57
2018-07-08T10:04:24.854Z,0.70
2018-07-08T10:06:53.816Z,0.63
2018-07-08T10:09:23.244Z,0.60
2018-07-08T10:11:51.575Z,0.70
2018-07-08T10:14:21.060Z,0.70
2018-07-08T10:16:49.296Z,0.70
2018-07-08T10:19:18.613Z,0.93
2018-07-08T10:21:46.898Z,0.77
2018-07-08T10:24:15.266Z,0.60
2018-07-08T10:26:43.625Z,0.83
2018-07-08T10:29:17.241Z,0.97
2018-07-08T10:31:51.250Z,0.70
2018-07-08T10:34:19.696Z,0.60
2018-07-08T10:36:47.790Z,0.60
2018-07-08T10:39:16.889Z,0.60
2018-07-08T10:41:45.208Z,0.70
2018-07-08T10:44:13.577Z,0.50
2018-07-08T10:46:42.453Z,0.63
2018-07-08T10:49:11.036Z,0.57
2018-07-08T10:51:39.368Z,0.70
2018-07-08T10:54:07.893Z,0.50
2018-07-08T10:56:36.274Z,0.47
2018-07-08T10:59:04.628Z,0.50
2018-07-08T11:01:34.183Z,0.90
2018-07-08T11:04:02.475Z,0.43
2018-07-08T11:06:30.788Z,0.50
2018-07-08T11:08:59.110Z,0.37
2018-07-08T11:11:27.519Z,0.50
2018-07-08T11:13:55.828Z,0.50
2018-07-08T11:16:24.183Z,0.70
2018-07-08T11:18:53.556Z,0.70
2018-07-08T11:21:23.055Z,0.50
2018-07-08T11:23:52.237Z,0.47
2018-07-08T11:26:20.560Z,0.50
2018-07-08T11:28:48.872Z,0.43
2018-07-08T11:31:17.164Z,0.40
2018-07-08T11:33:45.452Z,0.37
2018-07-08T11:36:15.203Z,0.50
2018-07-08T11:38:43.703Z,0.60
2018-07-08T11:41:11.967Z,0.43
2018-07-08T11:43:40.272Z,0.30
2018-07-08T11:46:08.544Z,0.40
2018-07-08T11:48:37.204Z,0.40
2018-07-08T11:51:06.500Z,0.50
2018-07-08T11:53:34.909Z,0.43
2018-07-08T11:56:03.266Z,0.40
2018-07-08T11:58:31.235Z,0.53
2018-07-08T12:00:59.511Z,0.50
2018-07-08T12:03:27.823Z,0.43
2018-07-08T12:05:56.269Z,0.23
2018-07-08T12:08:25.516Z,0.67
2018-07-08T12:10:53.805Z,0.50
2018-07-08T12:13:22.115Z,0.30
2018-07-08T12:15:50.409Z,0.30
2018-07-08T12:18:18.750Z,0.60
2018-07-08T12:20:46.838Z,0.60
2018-07-08T12:23:15.176Z,0.30
2018-07-08T12:25:43.516Z,0.60
2018-07-08T12:28:12.491Z,0.50
2018-07-08T12:30:40.985Z,0.40
2018-07-08T12:33:10.416Z,0.43
2018-07-08T12:35:38.792Z,0.40
2018-07-08T12:38:07.115Z,0.60
2018-07-08T12:40:35.398Z,0.60
2018-07-08T12:43:03.423Z,0.67
2018-07-08T12:45:31.915Z,0.47
2018-07-08T12:48:00.169Z,0.40
2018-07-08T12:50:28.521Z,0.57
2018-07-08T12:52:56.846Z,0.40
2018-07-08T12:55:25.198Z,0.53
2018-07-08T12:57:53.477Z,0.80
2018-07-08T13:00:21.756Z,0.50
2018-07-08T13:02:50.030Z,0.40
2018-07-08T13:05:18.273Z,0.60
2018-07-08T13:07:46.285Z,0.60
2018-07-08T13:10:14.633Z,0.47
2018-07-08T13:12:42.926Z,0.50
2018-07-08T13:15:11.330Z,0.50
2018-07-08T13:17:39.631Z,0.60
2018-07-08T13:20:08.800Z,0.57
2018-07-08T13:22:40.016Z,0.40
2018-07-08T13:25:08.338Z,0.50
2018-07-08T13:27:36.634Z,0.50
2018-07-08T13:30:05.014Z,0.50
2018-07-08T13:32:33.273Z,0.70
2018-07-08T13:35:01.560Z,0.53
2018-07-08T13:37:29.830Z,0.40
2018-07-08T13:39:58.120Z,0.67
2018-07-08T13:42:26.465Z,0.40
2018-07-08T13:44:54.749Z,0.70
2018-07-08T13:47:23.040Z,0.50
2018-07-08T13:49:51.315Z,0.50
2018-07-08T13:52:19.547Z,0.60
2018-07-08T13:54:47.797Z,0.43
2018-07-08T13:57:17.055Z,0.87
2018-07-08T13:59:45.554Z,0.60
2018-07-08T14:02:13.891Z,0.60
2018-07-08T14:04:42.246Z,0.60
2018-07-08T14:07:10.643Z,0.67
2018-07-08T14:09:39.741Z,0.77
2018-07-08T14:12:10.187Z,0.63
2018-07-08T14:14:38.594Z,0.60
2018-07-08T14:17:06.939Z,0.63
2018-07-08T14:19:35.309Z,0.60
2018-07-08T14:22:03.642Z,0.60
2018-07-08T14:24:31.924Z,0.67
2018-07-08T14:27:00.190Z,0.83
2018-07-08T14:29:29.924Z,0.67
2018-07-08T14:31:58.344Z,0.70
2018-07-08T14:34:26.624Z,0.70
2018-07-08T14:36:55.029Z,0.80
2018-07-08T14:39:23.279Z,0.80
2018-07-08T14:41:51.601Z,0.90
2018-07-08T14:44:19.893Z,1.10
2018-07-08T14:46:48.163Z,0.83
2018-07-08T14:49:16.194Z,0.83
2018-07-08T14:51:44.583Z,1.03
2018-07-08T14:54:12.900Z,0.90
2018-07-08T14:56:41.046Z,0.90
2018-07-08T14:59:09.396Z,1.03
2018-07-08T15:01:37.691Z,0.80
2018-07-08T15:04:05.977Z,0.63
2018-07-08T15:06:34.422Z,0.80
2018-07-08T15:09:06.225Z,0.90
2018-07-08T15:11:34.605Z,1.20
2018-07-08T15:14:03.164Z,0.90
2018-07-08T15:16:31.529Z,0.93
2018-07-08T15:18:59.871Z,0.90
2018-07-08T15:21:28.240Z,0.83
2018-07-08T15:23:56.243Z,1.10
2018-07-08T15:26:24.555Z,0.93
2018-07-08T15:28:52.990Z,1.00
2018-07-08T15:31:21.462Z,1.20
2018-07-08T15:33:49.799Z,1.20
2018-07-08T15:36:18.090Z,1.00
2018-07-08T15:38:46.358Z,1.10
2018-07-08T15:41:14.628Z,1.33
2018-07-08T15:43:42.904Z,1.07
2018-07-08T15:46:11.199Z,0.90
2018-07-08T15:48:39.202Z,1.10
2018-07-08T15:51:07.516Z,1.00
2018-07-08T15:53:35.817Z,1.10
2018-07-08T15:56:04.089Z,1.00
2018-07-08T15:58:32.787Z,1.17
2018-07-08T16:01:00.794Z,1.30
2018-07-08T16:03:29.063Z,1.10
2018-07-08T16:05:57.411Z,1.10
2018-07-08T16:08:25.720Z,1.40
2018-07-08T16:10:54.092Z,1.20
2018-07-08T16:13:22.413Z,1.00
2018-07-08T16:15:50.721Z,1.00
2018-07-08T16:18:19.030Z,1.17
2018-07-08T16:20:47.296Z,1.37
2018-07-08T16:23:15.576Z,1.60
2018-07-08T16:25:43.849Z,1.20
2018-07-08T16:28:12.088Z,1.30
2018-07-08T16:30:40.475Z,1.17
2018-07-08T16:33:08.734Z,1.00
2018-07-08T16:35:37.104Z,1.10
2018-07-08T16:38:05.393Z,1.20
2018-07-08T16:40:33.691Z,1.30
2018-07-08T16:43:01.742Z,0.97
2018-07-08T16:45:30.044Z,1.20
2018-07-08T16:47:58.024Z,1.13
2018-07-08T16:50:26.339Z,1.03
2018-07-08T16:52:54.592Z,1.37
2018-07-08T16:55:22.899Z,1.10
2018-07-08T16:57:51.168Z,1.00
2018-07-08T17:00:19.465Z,1.20
2018-07-08T17:02:47.908Z,1.23
2018-07-08T17:05:16.250Z,1.20
2018-07-08T17:07:44.539Z,1.13
2018-07-08T17:10:12.824Z,1.20
2018-07-08T17:12:40.856Z,1.17
2018-07-08T17:15:09.112Z,1.23
2018-07-08T17:17:37.340Z,1.10
2018-07-08T17:20:05.352Z,1.00
2018-07-08T17:22:33.641Z,1.20
2018-07-08T17:25:01.968Z,1.17
2018-07-08T17:27:29.963Z,1.00
2018-07-08T17:29:58.285Z,1.10
2018-07-08T17:32:26.563Z,1.10
2018-07-08T17:34:54.909Z,1.00
2018-07-08T17:37:23.313Z,1.13
2018-07-08T17:39:51.655Z,1.00
2018-07-08T17:42:19.937Z,1.13
2018-07-08T17:44:48.219Z,0.97
2018-07-08T17:47:16.494Z,1.00
2018-07-08T17:49:44.824Z,1.30
2018-07-08T17:52:16.108Z,1.20
2018-07-08T17:54:44.898Z,1.00
2018-07-08T17:57:13.208Z,0.93
2018-07-08T17:59:41.658Z,1.20
2018-07-08T18:02:09.969Z,1.10
2018-07-08T18:04:38.355Z,1.20
2018-07-08T18:07:07.125Z,0.90
2018-07-08T18:09:35.421Z,1.10
2018-07-08T18:12:03.712Z,0.80
2018-07-08T18:14:31.983Z,1.20
2018-07-08T18:17:00.268Z,1.30
2018-07-08T18:19:28.591Z,1.00
2018-07-08T18:21:56.998Z,1.00
2018-07-08T18:24:25.459Z,1.00
2018-07-08T18:26:53.783Z,0.87
2018-07-08T18:29:23.047Z,1.00
2018-07-08T18:31:51.408Z,0.80
2018-07-08T18:34:19.716Z,0.90
2018-07-08T18:36:48.033Z,1.10
2018-07-08T18:39:16.369Z,1.10
2018-07-08T18:41:44.641Z,1.00
2018-07-08T18:44:12.919Z,0.70
2018-07-08T18:46:41.129Z,1.23
2018-07-08T18:49:09.398Z,1.10
2018-07-08T18:51:37.702Z,1.20
2018-07-08T18:54:05.957Z,0.97
2018-07-08T18:56:34.002Z,0.90
2018-07-08T18:59:02.317Z,1.03
2018-07-08T19:01:30.602Z,0.90
2018-07-08T19:03:58.919Z,1.40
2018-07-08T19:06:27.246Z,0.80
2018-07-08T19:08:55.265Z,1.10
2018-07-08T19:11:23.571Z,0.80
2018-07-08T19:13:52.066Z,1.40
2018-07-08T19:16:20.082Z,0.93
2018-07-08T19:18:48.345Z,1.07
2018-07-08T19:21:16.741Z,1.20
2018-07-08T19:23:45.449Z,0.70
2018-07-08T19:26:13.728Z,0.90
2018-07-08T19:28:42.005Z,0.80
2018-07-08T19:31:10.311Z,0.90
2018-07-08T19:33:38.607Z,1.00
2018-07-08T19:36:06.970Z,1.00
2018-07-08T19:38:35.260Z,0.67
2018-07-08T19:41:03.539Z,0.90
2018-07-08T19:43:31.857Z,1.20
2018-07-08T19:46:00.177Z,0.90
2018-07-08T19:48:28.206Z,1.13
2018-07-08T19:50:56.495Z,0.80
2018-07-08T19:53:24.895Z,0.90
2018-07-08T19:55:53.163Z,1.00
2018-07-08T19:58:21.403Z,0.90
2018-07-08T20:00:50.523Z,0.83
2018-07-08T20:03:19.808Z,0.80
2018-07-08T20:05:48.120Z,0.80
2018-07-08T20:08:16.493Z,1.03
2018-07-08T20:10:44.806Z,0.80
2018-07-08T20:13:13.144Z,1.07
2018-07-08T20:15:41.395Z,0.77
2018-07-08T20:18:09.681Z,1.00
2018-07-08T20:20:37.956Z,1.00
2018-07-08T20:23:06.338Z,1.00
2018-07-08T20:25:34.628Z,1.00
2018-07-08T20:28:02.944Z,0.73
2018-07-08T20:30:31.235Z,0.93
2018-07-08T20:32:59.520Z,0.90
2018-07-08T20:35:27.902Z,1.00
2018-07-08T20:37:56.192Z,0.77
2018-07-08T20:40:24.528Z,0.90
2018-07-08T20:42:52.909Z,0.90
2018-07-08T20:45:20.935Z,0.70
2018-07-08T20:47:49.233Z,0.80
2018-07-08T20:50:17.557Z,0.80
2018-07-08T20:52:45.922Z,0.90
2018-07-08T20:55:14.219Z,0.80
2018-07-08T20:57:42.810Z,0.70
2018-07-08T21:00:12.861Z,1.20
2018-07-08T21:02:41.259Z,0.77
2018-07-08T21:05:09.394Z,0.77
2018-07-08T21:07:37.727Z,0.90
2018-07-08T21:10:05.959Z,0.87
2018-07-08T21:12:34.297Z,1.07
2018-07-08T21:15:03.212Z,0.93
2018-07-08T21:17:31.476Z,0.90
2018-07-08T21:19:59.731Z,1.17
2018-07-08T21:22:28.115Z,1.30
2018-07-08T21:24:56.457Z,1.20
2018-07-08T21:27:24.731Z,1.10
2018-07-08T21:29:53.335Z,1.30
2018-07-08T21:32:21.643Z,1.07
2018-07-08T21:34:49.919Z,0.97
2018-07-08T21:37:18.596Z,1.10
2018-07-08T21:39:46.847Z,0.70
2018-07-08T21:42:14.840Z,0.70
2018-07-08T21:44:43.196Z,1.17
2018-07-08T21:47:11.258Z,1.70
2018-07-08T21:49:39.543Z,1.43
2018-07-08T21:52:07.589Z,0.90
2018-07-08T21:54:35.893Z,0.90
2018-07-08T21:57:03.883Z,1.00
2018-07-08T21:59:33.444Z,0.80
2018-07-08T22:02:04.173Z,0.90
2018-07-08T22:04:32.556Z,0.80
2018-07-08T22:07:06.229Z,1.00
2018-07-08T22:09:34.799Z,1.00
2018-07-08T22:12:03.084Z,1.10
2018-07-08T22:14:31.392Z,1.27
2018-07-08T22:16:59.709Z,1.00
2018-07-08T22:19:27.922Z,0.93
2018-07-08T22:21:56.460Z,0.87
2018-07-08T22:24:24.471Z,1.07
2018-07-08T22:26:52.737Z,1.10
2018-07-08T22:29:22.384Z,1.07
2018-07-08T22:31:50.431Z,0.80
2018-07-08T22:34:18.683Z,0.83
2018-07-08T22:36:46.972Z,1.10
2018-07-08T22:39:15.364Z,1.10
2018-07-08T22:41:43.672Z,0.80
2018-07-08T22:44:11.959Z,0.90
2018-07-08T22:46:40.251Z,0.90
2018-07-08T22:49:08.271Z,1.00
2018-07-08T22:51:36.582Z,1.20
2018-07-08T22:54:04.627Z,0.80
2018-07-08T22:56:32.885Z,1.00
2018-07-08T22:59:01.226Z,0.80
2018-07-08T23:01:34.879Z,0.97
2018-07-08T23:04:03.468Z,0.97
2018-07-08T23:06:32.031Z,0.90
2018-07-08T23:09:00.411Z,1.20
2018-07-08T23:11:29.329Z,1.07
2018-07-08T23:13:58.371Z,0.83
2018-07-08T23:16:27.322Z,0.90
2018-07-08T23:18:55.678Z,1.20
2018-07-08T23:21:24.136Z,0.90
2018-07-08T23:23:52.463Z,1.00
2018-07-08T23:26:20.883Z,1.07
2018-07-08T23:28:49.247Z,1.10
2018-07-08T23:31:17.310Z,1.00
2018-07-08T23:33:45.440Z,0.90
2018-07-08T23:36:13.825Z,0.93
2018-07-08T23:38:42.220Z,0.63
2018-07-08T23:41:11.442Z,1.00
2018-07-08T23:43:39.491Z,0.83
2018-07-08T23:46:07.896Z,1.00
2018-07-08T23:48:36.363Z,1.10
2018-07-08T23:51:04.744Z,0.80
2018-07-08T23:53:33.066Z,0.90
2018-07-08T23:56:01.498Z,1.20
2018-07-08T23:58:29.912Z,1.00
